< < Back
Terminal Aerodrome Forecast


Current Version              Previous Versions:   1  2  3  4  5  6  7  8  9  

Terminal Aerodrome Forecast

901
FTUS42 KTAE 291700
TAFTLH
TAF
KTLH 291720Z 2918/3018 32008KT P6SM FEW060
     FM300000 35003KT P6SM SKC=



Latest METAR

557
SAUS80 KWBC 292300 RRB
MTRTLH
METAR KTLH 292253Z 32009G14KT 10SM FEW050 BKN250 32/18 A2993 RMK AO2
SLP131 T03180176 PNO $


USA.gov is the U.S. government's official web portal to all federal, state and local government web resources and services.